Time;durP1;ratioP1;P1;durP2;ratioP2;P2;SDS_P1;SDS_P2;PMS_P1;PMS_P2;Temp;Humidity;BMP_temperature;BMP_pressure;BME280_temperature;BME280_humidity;BME280_pressure;Samples;Min_cycle;Max_cycle;Signal;HPM_P1;HPM_P2
2022/04/23 00:01:00;;;;;;;14.25;8.38;;;;;;;13.08;74.81;98532.88;5091237;28;20016;-64
2022/04/23 00:03:26;;;;;;;15.25;9.38;;;;;;;13.02;75.13;98533.28;5091790;28;20364;-64
2022/04/23 00:05:51;;;;;;;10.90;6.97;;;;;;;13.04;75.59;98528.72;5090003;28;20084;-64
2022/04/23 00:08:17;;;;;;;12.23;7.85;;;;;;;12.98;74.96;98530.91;5088719;28;20635;-65
2022/04/23 00:10:42;;;;;;;14.85;8.48;;;;;;;12.94;75.80;98530.25;5081509;28;20411;-65
2022/04/23 00:13:09;;;;;;;15.77;9.25;;;;;;;12.91;76.75;98530.44;5089868;28;20035;-65
2022/04/23 00:15:38;;;;;;;14.00;8.60;;;;;;;12.83;76.51;98532.72;5089888;28;20024;-65
2022/04/23 00:18:08;;;;;;;14.32;8.38;;;;;;;12.82;76.28;98530.16;5090010;28;20471;-65
2022/04/23 00:20:35;;;;;;;13.50;8.52;;;;;;;12.79;76.94;98525.91;5091350;28;20019;-65
2022/04/23 00:23:01;;;;;;;16.42;9.07;;;;;;;12.74;76.77;98522.69;5091938;28;20024;-65
2022/04/23 00:25:27;;;;;;;14.77;8.63;;;;;;;12.59;77.34;98513.00;5091924;28;20032;-65
2022/04/23 00:27:52;;;;;;;15.77;8.55;;;;;;;12.65;77.85;98527.75;5091640;28;20055;-65
2022/04/23 00:30:18;;;;;;;11.75;8.18;;;;;;;12.63;77.36;98519.00;5091798;28;20052;-65
2022/04/23 00:32:44;;;;;;;17.25;8.15;;;;;;;12.57;77.76;98520.22;5091671;28;20016;-65
2022/04/23 00:35:19;;;;;;;14.05;8.95;;;;;;;12.61;77.08;98526.22;5091826;28;20356;-65
2022/04/23 00:37:45;;;;;;;15.95;9.00;;;;;;;12.62;77.11;98528.78;5091516;28;20500;-65
2022/04/23 00:40:17;;;;;;;14.88;8.57;;;;;;;12.57;77.11;98530.91;5091437;28;20019;-64
2022/04/23 00:42:47;;;;;;;14.00;8.98;;;;;;;12.60;77.57;98530.69;5091833;28;20051;-64
2022/04/23 00:45:12;;;;;;;14.68;9.35;;;;;;;12.59;76.70;98534.34;5091576;28;20131;-64
2022/04/23 00:47:38;;;;;;;15.45;8.93;;;;;;;12.59;76.73;98529.00;5091445;28;20016;-64
2022/04/23 00:50:04;;;;;;;14.32;9.13;;;;;;;12.59;77.37;98518.31;5091480;28;20032;-64
2022/04/23 00:52:31;;;;;;;17.80;9.93;;;;;;;12.63;76.96;98527.00;5089568;28;20027;-64
2022/04/23 00:54:57;;;;;;;16.23;9.75;;;;;;;12.59;77.14;98523.66;5072729;28;20031;-64
2022/04/23 00:57:22;;;;;;;15.98;9.80;;;;;;;12.53;77.65;98517.88;5072181;28;20107;-64
2022/04/23 00:59:49;;;;;;;15.45;9.63;;;;;;;12.58;77.58;98527.28;5087938;28;20559;-64
2022/04/23 01:02:15;;;;;;;15.73;9.50;;;;;;;12.56;77.74;98526.53;5071470;28;20056;-64
2022/04/23 01:04:41;;;;;;;16.30;9.90;;;;;;;12.53;77.72;98520.53;5070869;28;20063;-64
2022/04/23 01:07:07;;;;;;;14.13;9.30;;;;;;;12.48;78.30;98519.97;5085952;28;20032;-64
2022/04/23 01:09:33;;;;;;;14.00;9.05;;;;;;;12.49;78.26;98517.19;5091401;28;20031;-64
2022/04/23 01:11:59;;;;;;;17.75;9.90;;;;;;;12.48;78.46;98515.50;5091642;28;20031;-64
2022/04/23 01:14:26;;;;;;;18.38;10.15;;;;;;;12.46;78.45;98512.06;5095143;28;20080;-64
2022/04/23 01:16:51;;;;;;;15.82;9.73;;;;;;;12.44;78.34;98513.97;5094543;28;20555;-64
2022/04/23 01:19:17;;;;;;;20.55;10.57;;;;;;;12.44;78.15;98513.09;5093911;28;20052;-64
2022/04/23 01:21:43;;;;;;;16.30;9.77;;;;;;;12.40;78.69;98520.47;5093693;28;20079;-64
2022/04/23 01:24:09;;;;;;;18.23;10.48;;;;;;;12.39;78.69;98515.25;5094985;28;20036;-64
2022/04/23 01:26:35;;;;;;;15.57;10.05;;;;;;;12.33;79.02;98511.13;5094934;28;20020;-64
2022/04/23 01:29:01;;;;;;;18.02;10.20;;;;;;;12.30;79.88;98516.66;5089734;28;20020;-64
2022/04/23 01:31:27;;;;;;;18.92;10.63;;;;;;;12.23;79.28;98515.34;5074436;28;20024;-64
2022/04/23 01:33:53;;;;;;;16.13;10.70;;;;;;;12.22;79.16;98516.31;5077051;28;20388;-64
2022/04/23 01:36:19;;;;;;;18.23;10.52;;;;;;;12.22;80.05;98513.63;5074210;28;20017;-64
2022/04/23 01:38:45;;;;;;;18.63;10.48;;;;;;;12.17;79.70;98526.41;5074518;28;20031;-64
2022/04/23 01:41:10;;;;;;;18.42;10.68;;;;;;;12.13;79.95;98524.88;5074659;28;20031;-64
2022/04/23 01:43:36;;;;;;;18.00;10.77;;;;;;;12.17;80.10;98520.19;5074581;28;20032;-64
2022/04/23 01:46:02;;;;;;;18.23;10.32;;;;;;;12.10;80.49;98525.06;5074278;28;20020;-64
2022/04/23 01:48:27;;;;;;;18.92;11.40;;;;;;;12.08;80.80;98520.75;5093919;28;20039;-64
2022/04/23 01:50:53;;;;;;;18.35;11.43;;;;;;;12.03;80.30;98531.72;5094254;28;20103;-64
2022/04/23 01:53:19;;;;;;;19.58;11.23;;;;;;;12.01;81.06;98528.28;5094669;28;20483;-64
2022/04/23 01:55:45;;;;;;;16.80;10.85;;;;;;;11.98;81.49;98536.47;5094633;28;20058;-64
2022/04/23 01:58:10;;;;;;;19.08;10.98;;;;;;;11.97;81.06;98534.78;5094329;28;20468;-64
2022/04/23 02:00:36;;;;;;;20.02;10.82;;;;;;;11.93;81.17;98542.09;5083325;28;20086;-64
2022/04/23 02:03:02;;;;;;;19.50;11.10;;;;;;;11.82;81.41;98525.06;5074092;28;20026;-64
2022/04/23 02:05:28;;;;;;;20.27;11.13;;;;;;;11.88;80.65;98538.84;5073747;28;20020;-64
2022/04/23 02:07:53;;;;;;;17.83;11.57;;;;;;;11.88;80.91;98537.97;5074006;28;20020;-64
2022/04/23 02:10:19;;;;;;;18.15;10.45;;;;;;;11.84;82.07;98536.47;5073838;28;20032;-64
2022/04/23 02:12:46;;;;;;;20.60;11.40;;;;;;;11.79;81.47;98538.56;5073939;28;20081;-64
2022/04/23 02:15:13;;;;;;;19.10;10.68;;;;;;;11.72;82.33;98535.41;5073999;28;20024;-64
2022/04/23 02:17:41;;;;;;;18.17;10.23;;;;;;;11.70;82.22;98539.09;5073647;28;20028;-65
2022/04/23 02:20:08;;;;;;;17.67;10.65;;;;;;;11.68;83.16;98536.53;5092663;28;20114;-64
2022/04/23 02:22:34;;;;;;;23.15;11.25;;;;;;;11.60;82.43;98535.25;5093935;28;20044;-64
2022/04/23 02:25:00;;;;;;;18.98;11.30;;;;;;;11.62;83.38;98533.34;5093138;28;20055;-64
2022/04/23 02:27:26;;;;;;;15.88;10.57;;;;;;;11.55;83.82;98534.66;5093815;28;20115;-64
2022/04/23 02:29:52;;;;;;;20.48;11.73;;;;;;;11.52;83.60;98527.72;5093728;28;20024;-64
2022/04/23 02:32:18;;;;;;;20.98;10.73;;;;;;;11.46;84.48;98528.09;5093827;28;20024;-64
2022/04/23 02:34:44;;;;;;;20.35;11.68;;;;;;;11.42;84.14;98528.34;5093404;28;20035;-64
2022/04/23 02:37:11;;;;;;;22.80;12.07;;;;;;;11.35;85.11;98535.03;5093481;28;20039;-64
2022/04/23 02:39:38;;;;;;;20.67;12.02;;;;;;;11.35;84.59;98537.69;5093754;28;20180;-64
2022/04/23 02:42:04;;;;;;;18.13;10.98;;;;;;;11.31;85.20;98538.78;5093569;28;20036;-64
2022/04/23 02:44:30;;;;;;;19.50;11.75;;;;;;;11.26;84.27;98536.41;5093621;28;20503;-64
2022/04/23 02:46:55;;;;;;;19.95;11.45;;;;;;;11.20;84.21;98541.25;5093508;28;20051;-64
2022/04/23 02:49:22;;;;;;;18.27;10.90;;;;;;;11.18;85.46;98548.44;5093145;28;20130;-64
2022/04/23 02:51:47;;;;;;;18.67;11.48;;;;;;;11.13;85.30;98555.84;5092238;28;20032;-64
2022/04/23 02:54:13;;;;;;;20.65;11.23;;;;;;;11.07;85.46;98546.41;5092003;28;20024;-64
2022/04/23 02:56:38;;;;;;;19.58;12.13;;;;;;;11.02;85.98;98558.28;5091888;28;20020;-64
2022/04/23 02:59:05;;;;;;;21.67;10.80;;;;;;;11.04;85.61;98556.34;5091373;28;20024;-64
2022/04/23 03:01:31;;;;;;;19.42;11.20;;;;;;;11.03;86.03;98549.34;5086553;28;20027;-64
2022/04/23 03:03:58;;;;;;;16.83;10.63;;;;;;;10.97;86.06;98547.03;5071846;28;20451;-64
2022/04/23 03:06:28;;;;;;;18.38;11.43;;;;;;;10.99;85.82;98545.16;5071950;28;20511;-64
2022/04/23 03:08:55;;;;;;;19.80;11.60;;;;;;;10.96;85.99;98543.50;5091582;28;20020;-64
2022/04/23 03:11:21;;;;;;;24.30;12.13;;;;;;;10.91;85.81;98540.25;5093072;28;20497;-64
2022/04/23 03:13:46;;;;;;;20.92;10.85;;;;;;;10.86;86.46;98542.31;5092476;28;20012;-64
2022/04/23 03:16:12;;;;;;;20.33;11.77;;;;;;;10.81;86.50;98540.88;5092655;28;20098;-64
2022/04/23 03:18:37;;;;;;;20.20;11.98;;;;;;;10.82;87.35;98534.59;5092813;28;20458;-64
2022/04/23 03:21:03;;;;;;;21.85;12.57;;;;;;;10.79;87.19;98530.31;5092734;28;20094;-64
2022/04/23 03:23:28;;;;;;;20.77;10.75;;;;;;;10.78;87.37;98536.59;5092865;28;20022;-64
2022/04/23 03:25:53;;;;;;;21.17;10.80;;;;;;;10.75;88.00;98530.56;5092501;28;20027;-64
2022/04/23 03:28:20;;;;;;;20.60;11.13;;;;;;;10.67;87.86;98535.47;5074459;28;20037;-64
2022/04/23 03:30:46;;;;;;;20.83;11.35;;;;;;;10.64;87.60;98539.19;5089560;28;20020;-64
2022/04/23 03:33:11;;;;;;;18.50;10.68;;;;;;;10.64;88.63;98542.66;5072212;28;20038;-64
2022/04/23 03:35:37;;;;;;;18.45;10.70;;;;;;;10.68;88.33;98545.16;5074046;28;20476;-64
2022/04/23 03:38:03;;;;;;;22.77;13.13;;;;;;;10.69;88.34;98533.59;5084451;28;20035;-64
2022/04/23 03:40:29;;;;;;;22.65;12.20;;;;;;;10.64;88.20;98540.00;5092642;28;20097;-64
2022/04/23 03:42:54;;;;;;;20.23;12.95;;;;;;;10.58;88.61;98531.53;5091016;28;20032;-64
2022/04/23 03:45:20;;;;;;;20.88;11.63;;;;;;;10.51;88.28;98528.34;5090478;28;20293;-64
2022/04/23 03:47:47;;;;;;;22.02;12.48;;;;;;;10.49;89.10;98527.56;5090554;28;20035;-64
2022/04/23 03:50:13;;;;;;;20.48;12.10;;;;;;;10.46;89.27;98524.25;5090635;28;20020;-64
2022/04/23 03:52:39;;;;;;;21.90;13.13;;;;;;;10.43;89.64;98519.97;5091043;28;20387;-65
2022/04/23 03:55:05;;;;;;;21.23;12.02;;;;;;;10.42;89.94;98520.91;5090307;28;20027;-64
2022/04/23 03:57:31;;;;;;;20.75;11.63;;;;;;;10.39;90.12;98515.75;5091563;28;20028;-64
2022/04/23 03:59:56;;;;;;;20.98;12.10;;;;;;;10.43;90.31;98522.63;5091751;28;20103;-64
2022/04/23 04:02:22;;;;;;;21.05;11.80;;;;;;;10.48;90.34;98519.69;5092095;28;20019;-64
2022/04/23 04:04:48;;;;;;;21.15;11.25;;;;;;;10.43;90.35;98527.06;5092188;28;20032;-64
2022/04/23 04:07:19;;;;;;;19.65;11.27;;;;;;;10.30;90.86;98505.63;5092300;28;20098;-64
2022/04/23 04:09:45;;;;;;;22.23;12.60;;;;;;;10.40;90.86;98517.47;5083294;28;20029;-64
2022/04/23 04:12:11;;;;;;;21.38;13.00;;;;;;;10.40;90.82;98506.84;5071693;28;20039;-64
2022/04/23 04:14:37;;;;;;;19.20;11.52;;;;;;;10.42;90.44;98507.63;5082859;28;20020;-64
2022/04/23 04:17:09;;;;;;;19.15;11.45;;;;;;;10.40;91.24;98511.28;5092040;28;20024;-64
2022/04/23 04:19:35;;;;;;;22.38;12.15;;;;;;;10.41;91.32;98508.53;5091864;28;20062;-64
2022/04/23 04:22:04;;;;;;;22.98;12.98;;;;;;;10.43;90.92;98511.97;5091553;28;20080;-64
2022/04/23 04:24:31;;;;;;;20.50;12.45;;;;;;;10.46;91.36;98511.81;5091826;28;20035;-64
2022/04/23 04:26:57;;;;;;;22.05;12.32;;;;;;;10.51;91.02;98509.75;5090352;28;20016;-64
2022/04/23 04:29:24;;;;;;;22.80;12.32;;;;;;;10.52;91.32;98505.28;5072780;28;20032;-64
2022/04/23 04:31:51;;;;;;;22.48;13.82;;;;;;;10.57;91.54;98493.47;5071671;28;20090;-64
2022/04/23 04:34:21;;;;;;;21.50;12.50;;;;;;;10.51;91.63;98483.16;5071371;28;20021;-64
2022/04/23 04:36:48;;;;;;;22.48;12.00;;;;;;;10.63;92.06;98500.22;5071473;28;20025;-64
2022/04/23 04:39:15;;;;;;;20.35;12.10;;;;;;;10.69;91.84;98496.38;5071388;28;20040;-64
2022/04/23 04:41:41;;;;;;;21.15;11.70;;;;;;;10.76;90.95;98503.06;5071221;28;20035;-64
2022/04/23 04:44:07;;;;;;;23.50;11.68;;;;;;;10.81;90.87;98501.81;5071510;28;20551;-64
2022/04/23 04:46:33;;;;;;;21.83;10.90;;;;;;;10.87;90.49;98505.94;5071353;28;20024;-64
2022/04/23 04:48:59;;;;;;;21.63;13.07;;;;;;;10.97;89.75;98515.13;5057059;28;20066;-64
2022/04/23 04:51:25;;;;;;;21.48;10.75;;;;;;;11.01;90.15;98506.84;5075631;28;20024;-64
2022/04/23 04:53:52;;;;;;;19.48;10.98;;;;;;;11.01;89.22;98504.19;5075298;28;20035;-64
2022/04/23 04:56:18;;;;;;;19.55;12.45;;;;;;;11.11;89.06;98509.81;5075176;28;20134;-64
2022/04/23 04:58:43;;;;;;;21.48;11.32;;;;;;;11.18;89.95;98511.19;5075195;28;20468;-64
2022/04/23 05:01:10;;;;;;;22.17;11.55;;;;;;;11.25;89.71;98513.38;5060554;28;20071;-64
2022/04/23 05:03:35;;;;;;;21.15;11.30;;;;;;;11.36;88.18;98520.75;5068634;28;20043;-64
2022/04/23 05:06:01;;;;;;;17.15;10.32;;;;;;;11.43;88.63;98520.28;5055113;28;20029;-64
2022/04/23 05:08:27;;;;;;;19.20;11.38;;;;;;;11.50;87.50;98528.75;5056511;28;20358;-64
2022/04/23 05:10:52;;;;;;;18.58;10.95;;;;;;;11.58;88.03;98532.69;5074595;28;20567;-64
2022/04/23 05:13:17;;;;;;;17.60;10.40;;;;;;;11.68;87.70;98525.00;5075206;28;20028;-64
2022/04/23 05:15:45;;;;;;;19.60;11.68;;;;;;;11.68;86.63;98525.00;5074812;28;20104;-64
2022/04/23 05:18:11;;;;;;;19.85;11.25;;;;;;;11.74;86.92;98530.00;5091996;28;20024;-64
2022/04/23 05:20:36;;;;;;;17.08;9.68;;;;;;;11.77;85.84;98527.13;5094879;28;20019;-64
2022/04/23 05:23:01;;;;;;;16.65;9.95;;;;;;;11.88;86.22;98524.66;5095116;28;20027;-64
2022/04/23 05:25:27;;;;;;;17.23;10.68;;;;;;;11.93;85.12;98532.41;5094997;28;20063;-64
2022/04/23 05:27:52;;;;;;;16.42;10.38;;;;;;;12.02;84.57;98538.00;5062859;28;20456;-64
2022/04/23 05:30:18;;;;;;;17.77;11.32;;;;;;;12.02;85.66;98539.81;5056698;28;20079;-64
2022/04/23 05:32:43;;;;;;;18.80;10.15;;;;;;;12.13;84.65;98535.53;5067204;28;20032;-64
2022/04/23 05:35:09;;;;;;;16.70;9.60;;;;;;;12.30;84.06;98538.00;5074529;28;20544;-65
2022/04/23 05:37:34;;;;;;;79.75;31.67;;;;;;;12.50;83.00;98545.59;5074544;28;20387;-64
2022/04/23 05:40:00;;;;;;;19.48;11.18;;;;;;;12.66;81.31;98559.66;5074135;28;20036;-64
2022/04/23 05:42:25;;;;;;;19.10;11.07;;;;;;;12.81;80.78;98545.34;5074794;28;20112;-64
2022/04/23 05:44:50;;;;;;;15.30;9.95;;;;;;;13.01;80.21;98555.59;5074397;28;20024;-64
2022/04/23 05:47:16;;;;;;;14.30;8.77;;;;;;;13.11;80.09;98540.66;5074363;28;20529;-64
2022/04/23 05:49:41;;;;;;;15.95;9.45;;;;;;;13.26;79.63;98553.97;5074093;28;20111;-64
2022/04/23 05:52:07;;;;;;;17.38;10.20;;;;;;;13.23;79.20;98562.19;5074356;28;20020;-64
2022/04/23 05:54:32;;;;;;;14.15;9.13;;;;;;;13.48;78.37;98555.09;5074043;28;20021;-64
2022/04/23 05:56:58;;;;;;;14.63;10.13;;;;;;;13.69;77.37;98560.81;5074253;28;20060;-64
2022/04/23 05:59:26;;;;;;;19.27;10.55;;;;;;;13.81;77.54;98566.16;5068263;28;20035;-64
2022/04/23 06:01:51;;;;;;;14.73;9.30;;;;;;;13.97;77.64;98555.28;5060288;28;20383;-64
2022/04/23 06:04:16;;;;;;;18.65;9.45;;;;;;;14.10;76.06;98556.16;5073905;28;20029;-64
2022/04/23 06:06:42;;;;;;;15.98;9.60;;;;;;;14.36;75.49;98552.53;5062601;28;20029;-64
2022/04/23 06:09:07;;;;;;;15.77;9.20;;;;;;;14.50;74.50;98560.41;5053794;28;20032;-64
2022/04/23 06:11:33;;;;;;;14.75;8.80;;;;;;;14.50;73.81;98555.91;5066435;28;20090;-64
2022/04/23 06:13:58;;;;;;;17.15;9.85;;;;;;;14.65;73.25;98558.44;5073975;28;20086;-64
2022/04/23 06:16:23;;;;;;;15.88;9.80;;;;;;;14.73;73.48;98556.94;5075917;28;20116;-64
2022/04/23 06:18:49;;;;;;;14.30;9.40;;;;;;;14.60;73.85;98549.88;5094049;28;20383;-64
2022/04/23 06:21:14;;;;;;;14.50;8.60;;;;;;;14.63;73.09;98555.88;5094086;28;20040;-64
2022/04/23 06:23:39;;;;;;;14.38;8.57;;;;;;;14.67;74.25;98546.69;5094030;28;20391;-64
2022/04/23 06:26:06;;;;;;;15.35;8.73;;;;;;;14.62;73.17;98548.84;5093793;28;20020;-64
2022/04/23 06:28:31;;;;;;;15.57;8.10;;;;;;;14.71;73.57;98553.50;5083112;28;20067;-64
2022/04/23 06:30:57;;;;;;;15.32;8.20;;;;;;;14.85;72.44;98552.50;5073428;28;20112;-64
2022/04/23 06:33:22;;;;;;;13.45;8.90;;;;;;;15.06;72.98;98565.19;5055659;28;20032;-64
2022/04/23 06:35:48;;;;;;;15.32;8.43;;;;;;;15.26;70.77;98569.91;5073330;28;20017;-64
2022/04/23 06:38:13;;;;;;;17.95;9.40;;;;;;;15.42;71.57;98567.84;5073213;28;20104;-64
2022/04/23 06:40:38;;;;;;;14.85;9.10;;;;;;;15.73;70.22;98561.84;5073274;28;20025;-64
2022/04/23 06:43:04;;;;;;;14.38;9.52;;;;;;;15.77;69.01;98560.66;5073513;28;20428;-64
2022/04/23 06:45:29;;;;;;;14.50;8.88;;;;;;;15.96;68.20;98564.59;5073072;28;20035;-64
2022/04/23 06:48:04;;;;;;;15.57;8.95;;;;;;;16.11;70.27;98566.09;5073178;28;20048;-64
2022/04/23 06:50:34;;;;;;;12.15;7.53;;;;;;;16.06;67.25;98553.06;5073161;28;20020;-64
2022/04/23 06:53:01;;;;;;;14.25;8.68;;;;;;;16.08;66.94;98564.50;5066632;28;20508;-64
2022/04/23 06:55:27;;;;;;;12.82;7.80;;;;;;;16.09;68.56;98562.69;5064713;28;20111;-64
2022/04/23 06:57:53;;;;;;;12.57;7.63;;;;;;;16.04;67.48;98570.22;5060377;28;20032;-64
2022/04/23 07:00:19;;;;;;;13.23;8.02;;;;;;;16.17;67.80;98562.94;5072801;28;20085;-64
2022/04/23 07:02:44;;;;;;;14.32;7.68;;;;;;;16.38;68.69;98570.16;5073061;28;20171;-64
2022/04/23 07:05:10;;;;;;;12.05;7.05;;;;;;;16.56;66.39;98567.88;5072717;28;20028;-64
2022/04/23 07:07:35;;;;;;;12.30;7.82;;;;;;;16.47;65.37;98572.16;5073192;28;20407;-64
2022/04/23 07:10:00;;;;;;;12.77;8.15;;;;;;;16.37;67.04;98572.97;5072553;28;20025;-64
2022/04/23 07:12:27;;;;;;;11.68;7.40;;;;;;;16.54;66.22;98569.84;5072862;28;20029;-64
2022/04/23 07:14:52;;;;;;;11.15;6.97;;;;;;;16.65;65.58;98570.69;5072392;28;20484;-64
2022/04/23 07:17:25;;;;;;;13.50;8.05;;;;;;;16.71;65.53;98572.00;5082413;28;20109;-64
2022/04/23 07:19:53;;;;;;;11.02;6.90;;;;;;;16.51;65.74;98587.03;5093287;28;20145;-64
2022/04/23 07:22:19;;;;;;;11.85;7.72;;;;;;;16.81;65.86;98584.59;5092528;28;20098;-64
2022/04/23 07:24:46;;;;;;;11.68;7.22;;;;;;;17.08;64.33;98586.88;5092716;28;20074;-64
2022/04/23 07:27:11;;;;;;;14.52;8.25;;;;;;;17.20;64.84;98580.47;5093187;28;20023;-64
2022/04/23 07:29:37;;;;;;;13.65;7.32;;;;;;;17.40;63.69;98581.53;5072478;28;20028;-64
2022/04/23 07:32:06;;;;;;;13.18;7.68;;;;;;;17.67;61.55;98584.63;5072494;28;20028;-64
2022/04/23 07:37:34;;;;;;;12.93;7.55;;;;;;;18.05;59.60;98575.03;5054628;28;20075;-64
2022/04/23 07:40:12;;;;;;;11.25;7.07;;;;;;;18.28;59.56;98587.38;5058391;28;20103;-64
2022/04/23 07:42:37;;;;;;;12.50;7.38;;;;;;;18.20;56.75;98573.69;5072473;28;20478;-64
2022/04/23 07:45:04;;;;;;;12.23;7.68;;;;;;;18.19;60.43;98577.38;5071900;28;20035;-64
2022/04/23 07:47:29;;;;;;;10.35;6.47;;;;;;;18.39;60.02;98578.38;5070879;28;20056;-64
2022/04/23 07:49:55;;;;;;;10.70;6.78;;;;;;;18.90;57.71;98575.63;5071472;28;20111;-65
2022/04/23 07:52:21;;;;;;;11.98;6.15;;;;;;;19.20;54.86;98581.81;5072170;28;20033;-64
2022/04/23 07:54:46;;;;;;;10.70;6.55;;;;;;;19.65;57.78;98571.41;5071691;28;20039;-64
2022/04/23 07:57:12;;;;;;;11.82;6.30;;;;;;;19.97;53.29;98576.50;5070818;28;20028;-65
2022/04/23 07:59:40;;;;;;;10.75;5.85;;;;;;;20.40;54.49;98591.25;5071170;28;20075;-65
2022/04/23 08:02:06;;;;;;;11.82;6.00;;;;;;;20.20;51.63;98581.47;5071804;28;20025;-65
2022/04/23 08:04:31;;;;;;;11.00;6.10;;;;;;;20.04;51.59;98586.59;5071711;28;20040;-65
2022/04/23 08:06:56;;;;;;;14.00;7.00;;;;;;;20.00;54.71;98592.44;5071593;28;20023;-65
2022/04/23 08:09:22;;;;;;;9.90;5.88;;;;;;;19.91;54.34;98588.75;5071588;28;20025;-65
2022/04/23 08:11:47;;;;;;;10.43;6.00;;;;;;;19.78;53.80;98588.19;5069228;28;20059;-65
2022/04/23 08:14:13;;;;;;;9.77;6.18;;;;;;;19.67;53.73;98590.16;5051655;28;20031;-65
2022/04/23 08:16:38;;;;;;;9.25;6.10;;;;;;;19.64;53.16;98591.28;5060224;28;20511;-65
2022/04/23 08:19:03;;;;;;;9.30;5.95;;;;;;;19.60;53.56;98596.09;5091761;28;20036;-65
2022/04/23 08:21:29;;;;;;;10.77;6.57;;;;;;;19.80;52.59;98594.28;5091428;28;20096;-65
2022/04/23 08:23:55;;;;;;;10.60;6.88;;;;;;;19.61;53.02;98591.56;5091349;28;20039;-65
2022/04/23 08:26:20;;;;;;;11.35;7.40;;;;;;;20.09;52.18;98581.63;5091985;28;20042;-65
2022/04/23 08:31:30;;;;;;;9.02;5.68;;;;;;;19.99;52.74;98599.66;5071431;28;20449;-64
2022/04/23 08:33:58;;;;;;;9.40;5.78;;;;;;;20.11;52.38;98600.38;5069979;28;20025;-64
2022/04/23 08:36:26;;;;;;;8.93;6.07;;;;;;;20.13;50.95;98599.22;5070676;28;20774;-64
2022/04/23 08:38:56;;;;;;;8.32;5.28;;;;;;;20.18;50.92;98593.44;5071348;28;20051;-65
2022/04/23 08:41:28;;;;;;;10.70;6.63;;;;;;;20.48;52.38;98595.91;5071380;28;20020;-65
2022/04/23 08:44:07;;;;;;;11.10;5.63;;;;;;;20.60;52.97;98587.50;5071514;28;20116;-65
2022/04/23 08:46:37;;;;;;;10.57;6.35;;;;;;;21.31;51.51;98594.03;5071175;28;20067;-64
2022/04/23 08:49:13;;;;;;;9.63;5.55;;;;;;;21.45;49.95;98592.69;5064385;28;20021;-65
2022/04/23 08:51:41;;;;;;;9.98;5.85;;;;;;;21.13;49.32;98600.41;5051263;28;20097;-65
2022/04/23 08:54:09;;;;;;;10.40;5.60;;;;;;;20.66;49.56;98592.31;5053907;28;20044;-65
2022/04/23 08:56:36;;;;;;;9.90;6.25;;;;;;;20.63;51.24;98603.44;5051242;28;20389;-65
2022/04/23 08:59:02;;;;;;;11.57;5.35;;;;;;;20.83;51.08;98599.66;5065988;28;20025;-64
2022/04/23 09:01:31;;;;;;;9.82;6.10;;;;;;;20.65;49.96;98601.44;5071443;28;20336;-64
2022/04/23 09:03:57;;;;;;;9.63;6.07;;;;;;;20.79;50.70;98600.06;5071437;28;20020;-64
2022/04/23 09:06:23;;;;;;;9.32;5.78;;;;;;;20.67;50.72;98599.41;5071220;28;20507;-65
2022/04/23 09:09:10;;;;;;;9.20;5.30;;;;;;;21.01;48.72;98607.00;5071051;28;20028;-65
2022/04/23 09:11:37;;;;;;;9.07;5.82;;;;;;;21.26;49.68;98606.31;5070929;28;20056;-65
2022/04/23 09:14:06;;;;;;;9.23;5.43;;;;;;;21.18;48.38;98603.50;5071266;28;20034;-65
2022/04/23 09:25:35;;;;;;;8.75;5.30;;;;;;;20.33;49.99;98600.94;5073320;28;20035;-64
2022/04/23 09:28:17;;;;;;;8.90;5.18;;;;;;;20.41;51.58;98601.06;5076391;28;20016;-65
2022/04/23 09:30:44;;;;;;;8.48;5.47;;;;;;;20.50;51.49;98605.59;5089788;28;20404;-65
2022/04/23 09:33:10;;;;;;;9.40;5.72;;;;;;;20.48;50.39;98596.78;5089934;28;20388;-64
2022/04/23 09:35:50;;;;;;;9.10;5.32;;;;;;;20.91;51.41;98607.88;5092415;28;20027;-64
2022/04/23 09:38:18;;;;;;;7.97;4.72;;;;;;;21.45;49.19;98606.22;5080461;28;20026;-64
2022/04/23 09:40:50;;;;;;;8.80;5.45;;;;;;;21.71;49.32;98599.03;5073830;28;20032;-64
2022/04/23 09:43:16;;;;;;;8.15;5.20;;;;;;;21.70;47.67;98610.84;5074578;28;20035;-65
2022/04/23 09:45:42;;;;;;;8.60;5.50;;;;;;;21.39;49.92;98612.22;5074316;28;20033;-65
2022/04/23 09:48:16;;;;;;;10.50;5.55;;;;;;;21.25;48.63;98618.97;5074421;28;20099;-65
2022/04/23 09:50:48;;;;;;;10.82;5.90;;;;;;;21.15;50.24;98598.41;5074285;28;20059;-65
2022/04/23 09:53:16;;;;;;;11.15;5.32;;;;;;;21.12;48.76;98606.81;5074454;28;20486;-65
2022/04/23 09:55:42;;;;;;;9.75;5.07;;;;;;;21.03;48.05;98610.41;5074180;28;20044;-65
2022/04/23 09:58:10;;;;;;;8.82;5.03;;;;;;;21.15;48.19;98610.09;5081369;28;20021;-65
2022/04/23 10:00:40;;;;;;;7.38;4.43;;;;;;;21.13;48.63;98603.09;5094638;28;20383;-65
2022/04/23 10:03:07;;;;;;;8.57;4.72;;;;;;;21.36;47.61;98607.09;5094227;28;20023;-65
2022/04/23 10:05:55;;;;;;;8.45;4.65;;;;;;;21.56;47.66;98609.56;5084324;28;20024;-65
2022/04/23 10:08:23;;;;;;;9.18;4.40;;;;;;;21.56;48.25;98608.69;5073361;28;20492;-65
2022/04/23 10:11:15;;;;;;;8.02;4.75;;;;;;;21.76;47.04;98599.44;5074088;28;20036;-65
2022/04/23 10:13:46;;;;;;;8.30;4.03;;;;;;;21.75;46.34;98608.53;5067957;28;20078;-65
2022/04/23 10:16:13;;;;;;;9.02;4.28;;;;;;;21.96;48.40;98601.00;5074750;28;20020;-65
2022/04/23 10:18:39;;;;;;;9.15;4.38;;;;;;;22.12;47.15;98601.97;5092696;28;20545;-65
2022/04/23 10:21:10;;;;;;;7.90;4.32;;;;;;;22.50;46.00;98599.91;5093294;28;20483;-65
2022/04/23 10:24:23;;;;;;;7.65;3.65;;;;;;;22.79;44.95;98600.47;5094020;28;20023;-65
2022/04/23 10:26:51;;;;;;;6.73;3.37;;;;;;;22.98;44.21;98600.25;5011462;28;20037;-65
2022/04/23 10:29:22;;;;;;;6.28;3.85;;;;;;;23.01;44.43;98600.78;4994795;28;20397;-65
2022/04/23 10:32:16;;;;;;;6.35;3.63;;;;;;;23.01;44.58;98598.06;5023614;28;20033;-65
2022/04/23 10:34:43;;;;;;;5.95;3.05;;;;;;;23.61;44.75;98598.81;5053577;28;20037;-65
2022/04/23 10:37:29;;;;;;;7.07;3.63;;;;;;;23.83;43.54;98590.03;5053114;28;20086;-65
2022/04/23 10:39:55;;;;;;;5.28;3.25;;;;;;;23.69;45.01;98592.56;5053303;28;20029;-65
2022/04/23 10:42:22;;;;;;;5.05;3.13;;;;;;;23.43;43.64;98584.50;5055919;28;20131;-65
2022/04/23 10:44:49;;;;;;;8.93;3.30;;;;;;;23.69;43.79;98585.25;5052888;28;20032;-65
2022/04/23 10:47:32;;;;;;;5.20;3.35;;;;;;;23.64;41.68;98576.75;5057754;28;20013;-65
2022/04/23 10:50:20;;;;;;;5.47;3.13;;;;;;;23.60;42.69;98583.53;5053481;28;20087;-65
2022/04/23 10:52:46;;;;;;;7.13;3.08;;;;;;;23.74;41.60;98571.19;5053503;28;20082;-66
2022/04/23 10:55:13;;;;;;;5.97;2.83;;;;;;;23.49;40.81;98580.28;5053263;28;20594;-65
2022/04/23 10:57:46;;;;;;;4.75;2.42;;;;;;;23.02;41.67;98572.63;5056594;28;20020;-65
2022/04/23 11:00:19;;;;;;;6.35;3.20;;;;;;;22.80;42.47;98570.47;5072870;28;20032;-65
2022/04/23 11:02:54;;;;;;;5.05;2.95;;;;;;;23.01;44.33;98578.22;5073049;28;20032;-65
2022/04/23 11:14:39;;;;;;;5.10;3.22;;;;;;;23.22;42.29;98571.38;5072060;28;20051;-65
2022/04/23 11:17:06;;;;;;;5.90;2.95;;;;;;;23.15;41.62;98564.03;5075189;28;20101;-65
2022/04/23 11:19:32;;;;;;;5.38;3.20;;;;;;;23.27;41.17;98570.91;5087776;28;20391;-65
2022/04/23 11:21:58;;;;;;;5.18;3.03;;;;;;;22.87;42.73;98565.25;5065233;28;20080;-65
2022/04/23 11:24:24;;;;;;;6.53;3.00;;;;;;;22.86;42.55;98564.44;5072404;28;20382;-65
2022/04/23 11:26:51;;;;;;;5.00;3.20;;;;;;;23.43;43.65;98552.78;5078517;28;20031;-65
2022/04/23 11:29:21;;;;;;;5.05;2.55;;;;;;;23.76;40.81;98552.84;5092276;28;20107;-65
2022/04/23 11:31:51;;;;;;;5.68;2.67;;;;;;;23.63;41.51;98537.06;5085093;28;20124;-65
2022/04/23 11:34:17;;;;;;;4.72;2.63;;;;;;;23.98;42.68;98544.06;5074888;28;20028;-65
2022/04/23 11:36:42;;;;;;;5.78;3.03;;;;;;;24.34;40.53;98548.13;5083646;28;20052;-65
2022/04/23 11:39:09;;;;;;;5.47;3.00;;;;;;;24.34;39.76;98548.97;5070513;28;20111;-65
2022/04/23 11:41:43;;;;;;;5.45;2.67;;;;;;;23.88;40.77;98543.34;5091524;28;20028;-65
2022/04/23 11:44:12;;;;;;;;;;;;;;;23.56;42.18;98543.34;5092638;28;20027;-65
2022/04/23 11:46:45;;;;;;;4.72;2.38;;;;;;;23.38;41.42;98549.72;5092391;28;20398;-65
2022/04/23 11:49:31;;;;;;;5.00;2.42;;;;;;;23.46;41.55;98545.34;5090807;28;20407;-65